Time;durP1;ratioP1;P1;durP2;ratioP2;P2;SDS_P1;SDS_P2;PMS_P1;PMS_P2;Temp;Humidity;BMP_temperature;BMP_pressure;BME280_temperature;BME280_humidity;BME280_pressure;Samples;Min_cycle;Max_cycle;Signal;HPM_P1;HPM_P2
2023/11/15 00:00:00;;;;;;;;;;;;;;;2.68;90.49;98253.91;4957862;28;19933;-67
2023/11/15 00:02:28;;;;;;;;;;;;;;;2.71;90.32;98253.38;4960362;28;19936;-68
2023/11/15 00:04:54;;;;;;;;;;;;;;;2.77;90.25;98252.34;4958307;28;19996;-68
2023/11/15 00:07:20;;;;;;;;;;;;;;;2.78;89.66;98248.59;4958593;28;20401;-67
2023/11/15 00:09:46;;;;;;;;;;;;;;;2.79;89.61;98249.38;4958533;28;19926;-69
2023/11/15 00:12:12;;;;;;;;;;;;;;;2.82;89.61;98244.28;4958714;28;20383;-68
2023/11/15 00:14:38;;;;;;;;;;;;;;;2.80;89.23;98251.81;4955590;28;20385;-69
2023/11/15 00:17:04;;;;;;;;;;;;;;;2.78;89.15;98245.88;4958645;28;20101;-68
2023/11/15 00:19:31;;;;;;;;;;;;;;;2.77;89.20;98240.72;4959896;28;19946;-69
2023/11/15 00:21:57;;;;;;;;;;;;;;;2.79;89.41;98242.09;4976529;28;20339;-67
2023/11/15 00:24:23;;;;;;;;;;;;;;;2.83;89.60;98240.50;4955266;28;19926;-68
2023/11/15 00:26:50;;;;;;;;;;;;;;;2.83;89.65;98240.50;4958285;28;20289;-68
2023/11/15 00:29:15;;;;;;;;;;;;;;;2.83;89.23;98250.50;4957632;28;19933;-68
2023/11/15 00:31:41;;;;;;;;;;;;;;;2.84;88.65;98242.13;4958117;28;19930;-68
2023/11/15 00:34:07;;;;;;;;;;;;;;;2.82;88.68;98238.09;4959872;28;19998;-68
2023/11/15 00:36:36;;;;;;;;;;;;;;;2.84;88.66;98239.44;4958284;28;19926;-68
2023/11/15 00:39:04;;;;;;;;;;;;;;;2.85;88.70;98237.56;4959373;28;19933;-68
2023/11/15 00:41:30;;;;;;;;;;;;;;;2.89;88.91;98240.50;4956603;28;19925;-68
2023/11/15 00:43:56;;;;;;;;;;;;;;;2.90;88.75;98234.06;4959441;28;20297;-68
2023/11/15 00:46:21;;;;;;;;;;;;;;;2.91;88.64;98233.78;4958352;28;19926;-68
2023/11/15 00:48:47;;;;;;;;;;;;;;;2.95;88.94;98226.78;4957354;28;19972;-67
2023/11/15 00:51:13;;;;;;;;;;;;;;;3.00;88.56;98228.69;4959292;28;20071;-68
2023/11/15 00:53:40;;;;;;;;;;;;;;;3.03;88.45;98228.16;4998082;28;19930;-69
2023/11/15 00:56:06;;;;;;;;;;;;;;;3.04;88.57;98227.09;4994270;28;19969;-68
2023/11/15 00:58:38;;;;;;;;;;;;;;;3.05;87.97;98227.91;4959988;28;19936;-68
2023/11/15 01:01:10;;;;;;;;;;;;;;;3.05;87.81;98226.03;4957654;28;20476;-68
2023/11/15 01:03:37;;;;;;;;;;;;;;;3.01;87.90;98224.91;4958319;28;19932;-68
2023/11/15 01:06:03;;;;;;;;;;;;;;;2.97;87.99;98221.97;4949548;28;19977;-68
2023/11/15 01:08:29;;;;;;;;;;;;;;;2.93;88.01;98222.75;4958461;28;20003;-68
2023/11/15 01:10:56;;;;;;;;;;;;;;;2.91;88.01;98227.59;4955914;28;19930;-68
2023/11/15 01:13:23;;;;;;;;;;;;;;;2.90;87.89;98220.56;4959025;28;20436;-68
2023/11/15 01:15:50;;;;;;;;;;;;;;;2.90;87.80;98225.97;4941248;28;19926;-68
2023/11/15 01:18:16;;;;;;;;;;;;;;;2.87;87.66;98227.28;4958936;28;20040;-69
2023/11/15 01:20:43;;;;;;;;;;;;;;;2.85;87.74;98224.06;4957706;28;19953;-68
2023/11/15 01:23:09;;;;;;;;;;;;;;;2.82;88.26;98228.06;4958547;28;19966;-68
2023/11/15 01:25:35;;;;;;;;;;;;;;;2.82;88.62;98229.97;4971810;28;19926;-68
2023/11/15 01:28:03;;;;;;;;;;;;;;;2.83;88.70;98226.22;4957413;28;19961;-68
2023/11/15 01:30:28;;;;;;;;;;;;;;;2.86;88.54;98227.53;4957799;28;19926;-68
2023/11/15 01:32:54;;;;;;;;;;;;;;;2.84;88.73;98225.94;4960788;28;19930;-68
2023/11/15 01:35:21;;;;;;;;;;;;;;;2.85;88.87;98229.44;4955879;28;20304;-68
2023/11/15 01:37:47;;;;;;;;;;;;;;;2.85;88.07;98232.16;4958970;28;20021;-68
2023/11/15 01:40:13;;;;;;;;;;;;;;;2.88;88.29;98228.91;4958283;28;20176;-68
2023/11/15 01:42:40;;;;;;;;;;;;;;;2.90;88.49;98221.38;4972054;28;19933;-68
2023/11/15 01:45:07;;;;;;;;;;;;;;;2.86;88.70;98222.16;4957198;28;20342;-67
2023/11/15 01:47:34;;;;;;;;;;;;;;;2.86;88.79;98222.16;4956739;28;19926;-67
2023/11/15 01:50:00;;;;;;;;;;;;;;;2.91;88.64;98220.28;4955671;28;19956;-67
2023/11/15 01:52:27;;;;;;;;;;;;;;;2.96;88.58;98227.59;4959480;28;20202;-67
2023/11/15 01:54:58;;;;;;;;;;;;;;;3.00;88.75;98225.19;4972688;28;20028;-68
2023/11/15 01:57:24;;;;;;;;;;;;;;;3.07;88.67;98229.28;4955580;28;20458;-68
2023/11/15 01:59:51;;;;;;;;;;;;;;;3.07;88.13;98221.19;4941280;28;20054;-67
2023/11/15 02:02:18;;;;;;;;;;;;;;;3.10;87.75;98220.66;4960126;28;19933;-67
2023/11/15 02:04:44;;;;;;;;;;;;;;;3.11;87.79;98219.56;4960197;28;19925;-68
2023/11/15 02:07:09;;;;;;;;;;;;;;;3.15;87.96;98229.84;4958789;28;20078;-68
2023/11/15 02:09:36;;;;;;;;;;;;;;;3.13;87.96;98230.13;4944198;28;19926;-69
2023/11/15 02:12:03;;;;;;;;;;;;;;;3.18;88.36;98227.44;4979473;28;20012;-69
2023/11/15 02:14:30;;;;;;;;;;;;;;;3.22;88.28;98231.22;4978068;28;19930;-68
2023/11/15 02:16:56;;;;;;;;;;;;;;;3.19;87.33;98234.44;4942608;28;20330;-68
2023/11/15 02:19:24;;;;;;;;;;;;;;;3.14;87.24;98242.53;4959168;28;19933;-68
2023/11/15 02:21:50;;;;;;;;;;;;;;;3.12;87.71;98236.56;4961742;28;19926;-68
2023/11/15 02:24:18;;;;;;;;;;;;;;;3.11;87.91;98241.19;4977437;28;19926;-69
2023/11/15 02:26:45;;;;;;;;;;;;;;;3.09;88.11;98239.81;4960795;28;19957;-68
2023/11/15 02:29:11;;;;;;;;;;;;;;;3.03;87.79;98241.66;4959322;28;19969;-68
2023/11/15 02:31:37;;;;;;;;;;;;;;;2.99;88.11;98243.28;4974700;28;19953;-68
2023/11/15 02:34:02;;;;;;;;;;;;;;;2.93;88.45;98238.94;4961019;28;19926;-69
2023/11/15 02:36:28;;;;;;;;;;;;;;;2.89;88.48;98249.44;4960198;28;19933;-68
2023/11/15 02:38:54;;;;;;;;;;;;;;;2.88;88.63;98244.28;4960939;28;19926;-68
2023/11/15 02:41:22;;;;;;;;;;;;;;;2.81;88.50;98247.22;4959389;28;19925;-68
2023/11/15 02:43:48;;;;;;;;;;;;;;;2.77;88.53;98254.22;4977549;28;20009;-68
2023/11/15 02:46:17;;;;;;;;;;;;;;;2.77;88.76;98257.75;4961437;28;20213;-67
2023/11/15 02:48:42;;;;;;;;;;;;;;;2.86;88.57;98257.25;4961539;28;20044;-68
2023/11/15 02:51:08;;;;;;;;;;;;;;;2.92;88.12;98257.00;4958548;28;20018;-68
2023/11/15 02:53:34;;;;;;;;;;;;;;;2.94;88.07;98256.75;4957888;28;20435;-67
2023/11/15 02:56:00;;;;;;;;;;;;;;;2.89;87.54;98259.41;4959270;28;20543;-68
2023/11/15 02:58:27;;;;;;;;;;;;;;;2.86;87.96;98263.47;4960581;28;20363;-68
2023/11/15 03:00:53;;;;;;;;;;;;;;;2.85;88.19;98261.84;4926476;28;19930;-67
2023/11/15 03:03:19;;;;;;;;;;;;;;;2.80;88.48;98259.94;4958971;28;20285;-67
2023/11/15 03:05:46;;;;;;;;;;;;;;;2.76;88.06;98258.00;4960120;28;19925;-67
2023/11/15 03:08:11;;;;;;;;;;;;;;;2.72;88.13;98265.00;4964049;28;19953;-68
2023/11/15 03:10:37;;;;;;;;;;;;;;;2.70;88.25;98265.25;4958962;28;19926;-67
2023/11/15 03:13:03;;;;;;;;;;;;;;;2.63;88.45;98264.69;4959726;28;19998;-68
2023/11/15 03:15:30;;;;;;;;;;;;;;;2.57;88.75;98271.09;4959792;28;19936;-67
2023/11/15 03:17:56;;;;;;;;;;;;;;;2.53;89.02;98273.53;4976303;28;19926;-67
2023/11/15 03:20:23;;;;;;;;;;;;;;;2.54;89.30;98273.25;4960536;28;19927;-67
2023/11/15 03:22:49;;;;;;;;;;;;;;;2.55;89.64;98271.38;4975245;28;19972;-67
2023/11/15 03:25:15;;;;;;;;;;;;;;;2.63;89.85;98264.69;4960515;28;19925;-67
2023/11/15 03:27:41;;;;;;;;;;;;;;;2.72;90.04;98263.09;4975552;28;20440;-67
2023/11/15 03:30:07;;;;;;;;;;;;;;;2.78;89.74;98259.38;4962585;28;20442;-67
2023/11/15 03:32:34;;;;;;;;;;;;;;;2.86;89.71;98258.06;4959892;28;19930;-67
2023/11/15 03:35:00;;;;;;;;;;;;;;;2.88;89.43;98265.88;4959512;28;19926;-67
2023/11/15 03:37:26;;;;;;;;;;;;;;;2.80;89.03;98253.69;4960144;28;19926;-67
2023/11/15 03:39:52;;;;;;;;;;;;;;;2.89;88.83;98264.81;4961459;28;20036;-68
2023/11/15 03:42:18;;;;;;;;;;;;;;;2.89;88.78;98264.81;4960785;28;19930;-67
2023/11/15 03:44:44;;;;;;;;;;;;;;;2.95;88.66;98267.28;4959830;28;19933;-67
2023/11/15 03:47:10;;;;;;;;;;;;;;;2.94;88.45;98273.75;4974340;28;20155;-68
2023/11/15 03:49:37;;;;;;;;;;;;;;;2.97;88.70;98265.16;4961403;28;20370;-67
2023/11/15 03:52:03;;;;;;;;;;;;;;;2.98;87.80;98274.88;4957922;28;20025;-68
2023/11/15 03:54:29;;;;;;;;;;;;;;;2.98;87.45;98268.66;4961719;28;20049;-68
2023/11/15 03:56:55;;;;;;;;;;;;;;;3.00;88.02;98265.72;4957735;28;19979;-67
2023/11/15 03:59:20;;;;;;;;;;;;;;;2.98;88.47;98264.09;4959737;28;20404;-67
2023/11/15 04:01:48;;;;;;;;;;;;;;;2.95;88.82;98261.88;4958802;28;19926;-67
2023/11/15 04:04:14;;;;;;;;;;;;;;;3.01;89.37;98265.44;4959462;28;20349;-67
2023/11/15 04:06:41;;;;;;;;;;;;;;;3.11;89.33;98265.47;4959963;28;19926;-67
2023/11/15 04:09:07;;;;;;;;;;;;;;;3.14;88.79;98269.56;4958337;28;20400;-67
2023/11/15 04:11:37;;;;;;;;;;;;;;;3.09;88.48;98264.13;4958035;28;19930;-67
2023/11/15 04:14:03;;;;;;;;;;;;;;;3.09;88.30;98267.63;4958110;28;20317;-68
2023/11/15 04:16:28;;;;;;;;;;;;;;;3.09;88.26;98266.81;4957073;28;19926;-67
2023/11/15 04:18:55;;;;;;;;;;;;;;;3.06;88.46;98264.66;4957288;28;20396;-67
2023/11/15 04:21:21;;;;;;;;;;;;;;;3.09;88.69;98267.63;4956680;28;19969;-68
2023/11/15 04:23:48;;;;;;;;;;;;;;;3.14;89.14;98272.25;4972733;28;19968;-68
2023/11/15 04:26:14;;;;;;;;;;;;;;;3.11;89.25;98270.06;4954099;28;20456;-68
2023/11/15 04:28:39;;;;;;;;;;;;;;;3.09;88.79;98264.13;4957867;28;20056;-68
2023/11/15 04:31:05;;;;;;;;;;;;;;;3.10;88.73;98271.97;4960944;28;20339;-69
2023/11/15 04:33:31;;;;;;;;;;;;;;;3.08;88.12;98281.41;4958179;28;20427;-68
2023/11/15 04:35:59;;;;;;;;;;;;;;;3.03;87.45;98279.47;4952096;28;19934;-68
2023/11/15 04:38:26;;;;;;;;;;;;;;;2.92;87.44;98270.50;4954990;28;19925;-68
2023/11/15 04:40:54;;;;;;;;;;;;;;;2.89;87.69;98279.16;4958301;28;19933;-68
2023/11/15 04:43:19;;;;;;;;;;;;;;;2.86;88.60;98276.97;4957485;28;19995;-68
2023/11/15 04:45:45;;;;;;;;;;;;;;;2.83;88.59;98280.19;4941912;28;19961;-68
2023/11/15 04:48:11;;;;;;;;;;;;;;;2.79;87.54;98282.59;4961010;28;20013;-68
2023/11/15 04:50:37;;;;;;;;;;;;;;;2.73;87.49;98280.13;4960875;28;19926;-68
2023/11/15 04:53:05;;;;;;;;;;;;;;;2.71;88.25;98291.16;4973252;28;19933;-68
2023/11/15 04:55:31;;;;;;;;;;;;;;;2.67;88.68;98293.59;4958581;28;19945;-68
2023/11/15 04:57:58;;;;;;;;;;;;;;;2.64;88.67;98286.00;4957348;28;20023;-69
2023/11/15 05:00:24;;;;;;;;;;;;;;;2.66;89.43;98283.88;4957146;28;20074;-68
2023/11/15 05:02:50;;;;;;;;;;;;;;;2.66;90.25;98291.16;4959242;28;19926;-68
2023/11/15 05:05:16;;;;;;;;;;;;;;;2.63;90.44;98295.16;4966247;28;20033;-69
2023/11/15 05:07:41;;;;;;;;;;;;;;;2.58;90.97;98289.75;4956010;28;19932;-68
2023/11/15 05:10:09;;;;;;;;;;;;;;;2.46;91.29;98297.22;4956329;28;20168;-69
2023/11/15 05:12:35;;;;;;;;;;;;;;;2.39;91.76;98294.72;4959679;28;19932;-68
2023/11/15 05:15:02;;;;;;;;;;;;;;;2.39;91.73;98300.13;4957874;28;20025;-69
2023/11/15 05:17:29;;;;;;;;;;;;;;;2.34;92.04;98302.78;4957429;28;20208;-67
2023/11/15 05:19:55;;;;;;;;;;;;;;;2.26;91.59;98306.78;4962212;28;19926;-67
2023/11/15 05:22:20;;;;;;;;;;;;;;;2.20;92.05;98305.91;4940543;28;19926;-67
2023/11/15 05:24:46;;;;;;;;;;;;;;;2.18;92.45;98304.53;4957836;28;19969;-67
2023/11/15 05:27:12;;;;;;;;;;;;;;;2.15;92.42;98303.16;4958755;28;19926;-67
2023/11/15 05:29:38;;;;;;;;;;;;;;;2.20;92.71;98302.41;4960977;28;19930;-67
2023/11/15 05:32:05;;;;;;;;;;;;;;;2.23;92.20;98305.38;4961670;28;19926;-67
2023/11/15 05:34:31;;;;;;;;;;;;;;;2.22;91.18;98303.75;4962192;28;20333;-67
2023/11/15 05:36:57;;;;;;;;;;;;;;;2.21;90.82;98306.72;4958622;28;19956;-67
2023/11/15 05:39:24;;;;;;;;;;;;;;;2.20;91.34;98305.91;4948458;28;19926;-68
2023/11/15 05:41:49;;;;;;;;;;;;;;;2.28;91.82;98307.31;4943279;28;20477;-68
2023/11/15 05:44:15;;;;;;;;;;;;;;;2.37;92.33;98308.50;4950278;28;20033;-68
2023/11/15 05:46:41;;;;;;;;;;;;;;;2.47;92.56;98309.63;4957343;28;19926;-68
2023/11/15 05:49:09;;;;;;;;;;;;;;;2.59;92.39;98310.25;4958018;28;19926;-68
2023/11/15 05:51:36;;;;;;;;;;;;;;;2.67;91.97;98317.06;4958454;28;19930;-67
2023/11/15 05:54:05;;;;;;;;;;;;;;;2.72;91.56;98321.69;4959233;28;19926;-68
2023/11/15 05:56:30;;;;;;;;;;;;;;;2.75;90.25;98321.16;4962203;28;19937;-67
2023/11/15 05:58:56;;;;;;;;;;;;;;;2.78;89.88;98317.94;4956831;28;19926;-69
2023/11/15 06:01:22;;;;;;;;;;;;;;;2.77;89.03;98319.84;4945988;28;20976;-68
2023/11/15 06:03:50;;;;;;;;;;;;;;;2.73;88.18;98317.91;4958076;28;19930;-68
2023/11/15 06:06:17;;;;;;;;;;;;;;;2.70;87.83;98319.25;4965402;28;19926;-67
2023/11/15 06:08:44;;;;;;;;;;;;;;;2.72;87.74;98330.59;4959797;28;19926;-67
2023/11/15 06:11:10;;;;;;;;;;;;;;;2.74;87.30;98328.47;4953340;28;19965;-67
2023/11/15 06:13:37;;;;;;;;;;;;;;;2.80;87.59;98332.81;4958966;28;19971;-67
2023/11/15 06:16:03;;;;;;;;;;;;;;;2.93;87.62;98333.44;4953311;28;19953;-68
2023/11/15 06:18:29;;;;;;;;;;;;;;;3.11;87.65;98330.31;4970726;28;19926;-68
2023/11/15 06:20:55;;;;;;;;;;;;;;;3.32;87.29;98333.09;4959830;28;20397;-67
2023/11/15 06:23:22;;;;;;;;;;;;;;;3.46;85.88;98335.34;4959889;28;19926;-67
2023/11/15 06:25:49;;;;;;;;;;;;;;;3.52;85.04;98337.00;4960430;28;19926;-67
2023/11/15 06:28:16;;;;;;;;;;;;;;;3.58;84.88;98337.81;4964814;28;19926;-68
2023/11/15 06:30:44;;;;;;;;;;;;;;;3.50;84.79;98326.44;4963327;28;19968;-67
2023/11/15 06:33:10;;;;;;;;;;;;;;;3.65;84.45;98338.38;4964430;28;19925;-70
2023/11/15 06:35:37;;;;;;;;;;;;;;;3.60;83.15;98335.69;4948072;28;19976;-67
2023/11/15 06:38:03;;;;;;;;;;;;;;;3.55;82.50;98334.56;4962677;28;20289;-68
2023/11/15 06:40:30;;;;;;;;;;;;;;;3.55;82.99;98323.75;4961668;28;19934;-68
2023/11/15 06:42:56;;;;;;;;;;;;;;;3.56;83.66;98327.28;4962965;28;19926;-68
2023/11/15 06:45:22;;;;;;;;;;;;;;;3.52;83.24;98334.28;4965085;28;19930;-69
2023/11/15 06:47:51;;;;;;;;;;;;;;;3.57;82.75;98330.78;4960924;28;19926;-68
2023/11/15 06:50:18;;;;;;;;;;;;;;;3.70;82.26;98341.09;4987094;28;19926;-69
2023/11/15 06:52:45;;;;;;;;;;;;;;;3.62;81.49;98339.72;4961978;28;19926;-69
2023/11/15 06:55:11;;;;;;;;;;;;;;;3.54;81.29;98343.75;4963708;28;19926;-67
2023/11/15 06:57:40;;;;;;;;;;;;;;;3.57;81.53;98338.88;4964771;28;19926;-67
2023/11/15 07:00:08;;;;;;;;;;;;;;;3.53;81.43;98346.72;4963088;28;19948;-69
2023/11/15 07:02:35;;;;;;;;;;;;;;;3.43;81.37;98347.47;4966862;28;19912;-68
2023/11/15 07:05:03;;;;;;;;;;;;;;;3.37;81.37;98346.66;4965906;28;20014;-67
2023/11/15 07:07:30;;;;;;;;;;;;;;;3.39;81.90;98343.69;4963059;28;19949;-67
2023/11/15 07:09:56;;;;;;;;;;;;;;;3.39;82.47;98349.06;4961042;28;20221;-68
2023/11/15 07:12:23;;;;;;;;;;;;;;;3.42;82.43;98343.16;4963428;28;19926;-67
2023/11/15 07:14:53;;;;;;;;;;;;;;;3.49;82.06;98348.31;4942726;28;20427;-67
2023/11/15 07:17:19;;;;;;;;;;;;;;;3.49;81.37;98343.72;4955724;28;20063;-67
2023/11/15 07:19:45;;;;;;;;;;;;;;;3.45;80.68;98350.75;4964140;28;19926;-68
2023/11/15 07:22:11;;;;;;;;;;;;;;;3.49;80.77;98351.84;4962201;28;19933;-67
2023/11/15 07:24:39;;;;;;;;;;;;;;;3.55;80.60;98356.19;4962257;28;19926;-68
2023/11/15 07:27:05;;;;;;;;;;;;;;;3.52;80.50;98351.31;4962510;28;19925;-69
2023/11/15 07:29:33;;;;;;;;;;;;;;;3.54;80.72;98351.84;4962431;28;19936;-68
2023/11/15 07:32:01;;;;;;;;;;;;;;;3.54;80.73;98346.44;4963262;28;19933;-68
2023/11/15 07:34:30;;;;;;;;;;;;;;;3.53;80.73;98360.25;4962751;28;20416;-69
2023/11/15 07:36:57;;;;;;;;;;;;;;;3.52;80.79;98348.59;4964537;28;20041;-68
2023/11/15 07:39:24;;;;;;;;;;;;;;;3.51;80.53;98355.09;4963893;28;19933;-69
2023/11/15 07:41:50;;;;;;;;;;;;;;;3.50;80.30;98350.75;4964198;28;19926;-69
2023/11/15 07:44:18;;;;;;;;;;;;;;;3.51;80.72;98354.25;4961109;28;19925;-69
2023/11/15 07:46:46;;;;;;;;;;;;;;;3.62;80.29;98363.25;4962581;28;20186;-68
2023/11/15 07:49:18;;;;;;;;;;;;;;;3.80;79.83;98364.66;4992422;28;20293;-68
2023/11/15 07:51:44;;;;;;;;;;;;;;;3.91;79.56;98369.03;4962776;28;19926;-69
2023/11/15 07:54:10;;;;;;;;;;;;;;;4.00;79.24;98363.09;4961323;28;19925;-69
2023/11/15 07:56:36;;;;;;;;;;;;;;;4.18;78.74;98367.19;4964375;28;20404;-67
2023/11/15 07:59:02;;;;;;;;;;;;;;;4.24;77.60;98360.72;4965919;28;19977;-69
2023/11/15 08:01:28;;;;;;;;;;;;;;;4.28;77.04;98364.50;4978652;28;19995;-69
2023/11/15 08:03:54;;;;;;;;;;;;;;;4.33;76.65;98358.28;4993054;28;19930;-68
2023/11/15 08:06:22;;;;;;;;;;;;;;;4.41;76.17;98363.16;4978127;28;20184;-67
2023/11/15 08:08:47;;;;;;;;;;;;;;;4.43;76.55;98369.13;4959808;28;20393;-67
2023/11/15 08:11:14;;;;;;;;;;;;;;;4.46;76.89;98359.66;4961097;28;19936;-67
2023/11/15 08:13:40;;;;;;;;;;;;;;;4.42;76.56;98366.69;4962938;28;20041;-69
2023/11/15 08:16:12;;;;;;;;;;;;;;;4.44;76.66;98365.31;4963073;28;20036;-68
2023/11/15 08:18:38;;;;;;;;;;;;;;;4.45;76.10;98368.84;4963964;28;19932;-68
2023/11/15 08:21:05;;;;;;;;;;;;;;;4.39;75.51;98368.88;4962709;28;19926;-69
2023/11/15 08:23:32;;;;;;;;;;;;;;;4.37;75.04;98375.63;4962994;28;19934;-69
2023/11/15 08:26:02;;;;;;;;;;;;;;;4.48;75.15;98382.66;4962598;28;20029;-69
2023/11/15 08:28:28;;;;;;;;;;;;;;;4.78;74.79;98381.06;4954710;28;19948;-69
2023/11/15 08:30:54;;;;;;;;;;;;;;;5.29;73.19;98384.78;4952200;28;19926;-69
2023/11/15 08:33:19;;;;;;;;;;;;;;;5.76;71.18;98385.44;4961894;28;19975;-69
2023/11/15 08:35:47;;;;;;;;;;;;;;;6.49;68.88;98385.91;4962881;28;19979;-69
2023/11/15 08:38:14;;;;;;;;;;;;;;;7.40;65.12;98391.91;4962268;28;19926;-69
2023/11/15 08:40:41;;;;;;;;;;;;;;;7.94;63.03;98384.47;4961760;28;20307;-69
2023/11/15 08:43:08;;;;;;;;;;;;;;;8.16;60.68;98379.56;4963502;28;19925;-69
2023/11/15 08:45:34;;;;;;;;;;;;;;;7.93;61.89;98384.75;4945086;28;20027;-69
2023/11/15 08:48:00;;;;;;;;;;;;;;;8.28;61.24;98384.59;4962858;28;20033;-69
2023/11/15 08:50:27;;;;;;;;;;;;;;;8.81;59.87;98380.81;4962025;28;19933;-69
2023/11/15 08:52:54;;;;;;;;;;;;;;;8.28;58.92;98388.13;4962107;28;19932;-69
2023/11/15 08:55:20;;;;;;;;;;;;;;;7.70;61.07;98397.28;4964665;28;19926;-69
2023/11/15 08:57:47;;;;;;;;;;;;;;;7.31;62.24;98393.63;4962802;28;19926;-69
2023/11/15 09:00:15;;;;;;;;;;;;;;;7.28;61.83;98386.88;4959219;28;19932;-69
2023/11/15 09:02:42;;;;;;;;;;;;;;;7.17;62.43;98386.13;4962697;28;20655;-68
2023/11/15 09:05:08;;;;;;;;;;;;;;;6.77;62.60;98394.38;4962733;28;20396;-68
2023/11/15 09:07:34;;;;;;;;;;;;;;;6.34;63.81;98386.81;4959173;28;19933;-68
2023/11/15 09:10:00;;;;;;;;;;;;;;;6.05;64.90;98387.50;4964250;28;19926;-68
2023/11/15 09:12:30;;;;;;;;;;;;;;;5.91;65.56;98386.47;4964303;28;20420;-69
2023/11/15 09:15:02;;;;;;;;;;;;;;;6.27;65.69;98396.34;4967142;28;19973;-69
2023/11/15 09:17:30;;;;;;;;;;;;;;;7.55;61.78;98393.63;4967122;28;19937;-69
2023/11/15 09:19:59;;;;;;;;;;;;;;;7.98;59.04;98389.34;4965851;28;20242;-69
2023/11/15 09:22:25;;;;;;;;;;;;;;;8.36;57.71;98390.19;4963154;28;19926;-69
2023/11/15 09:24:53;;;;;;;;;;;;;;;8.94;56.42;98388.22;4959415;28;19949;-69
2023/11/15 09:27:23;;;;;;;;;;;;;;;8.83;56.44;98386.78;4963256;28;19936;-69
2023/11/15 09:29:51;;;;;;;;;;;;;;;9.52;55.79;98388.03;4962396;28;19961;-69
2023/11/15 09:32:18;;;;;;;;;;;;;;;10.72;51.00;98387.13;4963726;28;19926;-69
2023/11/15 09:34:46;;;;;;;;;;;;;;;11.83;48.26;98392.19;4966066;28;19971;-68
2023/11/15 09:37:12;;;;;;;;;;;;;;;12.52;46.26;98389.94;4980473;28;19932;-69
2023/11/15 09:39:39;;;;;;;;;;;;;;;13.13;45.00;98389.06;4962969;28;19926;-70
2023/11/15 09:42:05;;;;;;;;;;;;;;;13.03;44.19;98398.44;4965040;28;19926;-69
2023/11/15 09:44:34;;;;;;;;;;;;;;;12.88;44.45;98399.78;4963239;28;19952;-69
2023/11/15 09:47:03;;;;;;;;;;;;;;;12.98;44.42;98393.94;4961520;28;19926;-69
2023/11/15 09:49:31;;;;;;;;;;;;;;;12.14;45.38;98400.38;4964018;28;19925;-69
2023/11/15 09:51:59;;;;;;;;;;;;;;;10.62;48.96;98403.78;4960548;28;19984;-69
2023/11/15 09:54:25;;;;;;;;;;;;;;;9.42;51.17;98407.31;4962858;28;20104;-69
2023/11/15 09:56:50;;;;;;;;;;;;;;;8.56;53.69;98410.06;4963158;28;20407;-69
2023/11/15 09:59:18;;;;;;;;;;;;;;;8.01;55.36;98400.47;4965061;28;20398;-69
2023/11/15 10:01:44;;;;;;;;;;;;;;;7.61;56.91;98405.28;4964213;28;20037;-69
2023/11/15 10:04:19;;;;;;;;;;;;;;;7.34;57.83;98403.94;4947465;28;20435;-69
2023/11/15 10:06:50;;;;;;;;;;;;;;;7.09;58.36;98411.25;4963958;28;20377;-70
2023/11/15 10:09:16;;;;;;;;;;;;;;;6.89;58.91;98417.66;4963941;28;19945;-69
2023/11/15 10:11:47;;;;;;;;;;;;;;;6.56;60.04;98412.75;4961478;28;19991;-69
2023/11/15 10:14:15;;;;;;;;;;;;;;;6.33;61.38;98406.09;4962775;28;19961;-69
2023/11/15 10:16:48;;;;;;;;;;;;;;;6.16;61.76;98409.97;4965184;28;19926;-69
2023/11/15 10:19:26;;;;;;;;;;;;;;;5.93;62.70;98408.69;4958138;28;19979;-68
2023/11/15 10:21:57;;;;;;;;;;;;;;;5.92;63.40;98412.50;4966265;28;19926;-69
2023/11/15 10:24:23;;;;;;;;;;;;;;;5.89;63.54;98413.06;4964169;28;20021;-68
2023/11/15 10:26:50;;;;;;;;;;;;;;;5.90;63.81;98412.78;4964574;28;19965;-68
2023/11/15 10:29:19;;;;;;;;;;;;;;;5.92;63.92;98421.47;4962864;28;20392;-68
2023/11/15 10:31:47;;;;;;;;;;;;;;;5.58;65.05;98415.88;4966059;28;19933;-68
2023/11/15 10:34:13;;;;;;;;;;;;;;;5.37;66.05;98416.75;4964655;28;19926;-68
2023/11/15 10:36:39;;;;;;;;;;;;;;;5.20;66.90;98417.06;4966024;28;19926;-69
2023/11/15 10:39:06;;;;;;;;;;;;;;;5.11;67.39;98416.78;4960476;28;20067;-68
2023/11/15 10:41:32;;;;;;;;;;;;;;;4.96;68.06;98414.88;4961415;28;20008;-68
2023/11/15 10:43:58;;;;;;;;;;;;;;;4.90;68.44;98423.28;4960764;28;19926;-68
2023/11/15 10:46:30;;;;;;;;;;;;;;;4.86;68.75;98423.03;4964132;28;20017;-68
2023/11/15 10:48:59;;;;;;;;;;;;;;;4.85;68.79;98426.84;4963047;28;19925;-69
2023/11/15 10:51:29;;;;;;;;;;;;;;;4.93;68.51;98422.78;4960103;28;20164;-69
2023/11/15 10:53:56;;;;;;;;;;;;;;;4.84;68.34;98430.63;4972899;28;20032;-69
2023/11/15 10:56:24;;;;;;;;;;;;;;;4.75;68.59;98427.63;4956475;28;19991;-69
2023/11/15 10:58:52;;;;;;;;;;;;;;;4.68;68.84;98429.78;4958077;28;19926;-69
2023/11/15 11:01:19;;;;;;;;;;;;;;;4.67;68.92;98434.38;4961446;28;20353;-69
2023/11/15 11:03:46;;;;;;;;;;;;;;;4.54;69.34;98430.31;4964047;28;19926;-68
2023/11/15 11:06:18;;;;;;;;;;;;;;;4.51;69.70;98435.44;4964269;28;19926;-68
2023/11/15 11:08:49;;;;;;;;;;;;;;;4.60;69.51;98433.00;4965651;28;19926;-68
2023/11/15 11:11:21;;;;;;;;;;;;;;;4.58;69.95;98437.88;4963296;28;19960;-68
2023/11/15 11:14:01;;;;;;;;;;;;;;;4.56;69.81;98435.47;4962208;28;19926;-68
2023/11/15 11:16:34;;;;;;;;;;;;;;;4.58;69.88;98437.88;4965585;28;19932;-68
2023/11/15 11:19:14;;;;;;;;;;;;;;;4.60;70.25;98439.25;4961248;28;20483;-68
2023/11/15 11:22:11;;;;;;;;;;;;;;;4.63;70.21;98440.63;4962466;28;20200;-68
2023/11/15 11:24:45;;;;;;;;;;;;;;;4.70;70.49;98438.44;4959639;28;19922;-69
2023/11/15 11:27:30;;;;;;;;;;;;;;;4.78;70.48;98443.34;4978751;28;19967;-69
2023/11/15 11:30:17;;;;;;;;;;;;;;;4.86;70.84;98441.16;4959537;28;19922;-69
2023/11/15 11:32:47;;;;;;;;;;;;;;;4.91;71.19;98441.16;4960799;28;19929;-69
2023/11/15 11:35:30;;;;;;;;;;;;;;;5.00;71.68;98431.44;4961101;28;19933;-69
2023/11/15 11:37:59;;;;;;;;;;;;;;;4.98;71.81;98439.00;4944315;28;19930;-69
2023/11/15 11:40:31;;;;;;;;;;;;;;;4.96;72.40;98439.28;4961939;28;19926;-69
2023/11/15 11:43:11;;;;;;;;;;;;;;;4.95;72.64;98437.66;4962026;28;19925;-69
2023/11/15 11:45:37;;;;;;;;;;;;;;;4.91;73.18;98439.28;4937527;28;19933;-69
2023/11/15 11:48:04;;;;;;;;;;;;;;;4.96;73.52;98446.59;4941297;28;19926;-69
2023/11/15 11:50:30;;;;;;;;;;;;;;;4.91;73.53;98444.69;4949004;28;20064;-69
2023/11/15 11:53:01;;;;;;;;;;;;;;;4.79;74.00;98442.25;4960552;28;19930;-68
2023/11/15 11:55:32;;;;;;;;;;;;;;;4.79;73.18;98447.69;4959491;28;20393;-67
2023/11/15 11:58:01;;;;;;;;;;;;;;;4.72;72.84;98451.75;4959626;28;19926;-68
2023/11/15 12:00:27;;;;;;;;;;;;;;;4.67;72.50;98447.13;4959891;28;20306;-68
2023/11/15 12:02:53;;;;;;;;;;;;;;;4.61;72.79;98450.91;4961767;28;19925;-69
2023/11/15 12:05:21;;;;;;;;;;;;;;;4.60;73.04;98449.25;5052378;28;19977;-69
2023/11/15 12:07:47;;;;;;;;;;;;;;;4.50;73.10;98456.31;5063053;28;20375;-68
2023/11/15 12:10:14;;;;;;;;;;;;;;;4.37;73.29;98454.09;5063824;28;19931;-68
2023/11/15 12:12:46;;;;;;;;;;;;;;;4.33;73.51;98451.09;4977032;28;19945;-68
2023/11/15 12:15:15;;;;;;;;;;;;;;;4.25;73.97;98457.06;5048123;28;20599;-68
2023/11/15 12:17:41;;;;;;;;;;;;;;;4.24;74.12;98464.34;5062375;28;20380;-68
2023/11/15 12:20:11;;;;;;;;;;;;;;;4.32;73.89;98464.91;5062090;28;19935;-67
2023/11/15 12:22:40;;;;;;;;;;;;;;;4.28;73.25;98469.22;4984764;28;20423;-68
2023/11/15 12:25:09;;;;;;;;;;;;;;;4.22;73.89;98473.81;5065038;28;19967;-68
2023/11/15 12:27:36;;;;;;;;;;;;;;;4.20;73.75;98467.84;5060952;28;19928;-68
2023/11/15 12:30:02;;;;;;;;;;;;;;;4.11;74.29;98462.94;5061079;28;19924;-68
2023/11/15 12:32:29;;;;;;;;;;;;;;;4.00;74.33;98469.38;5052197;28;19924;-68
2023/11/15 12:34:55;;;;;;;;;;;;;;;3.98;74.65;98474.25;5062903;28;20035;-68
2023/11/15 12:37:21;;;;;;;;;;;;;;;3.99;74.65;98475.88;5062320;28;20431;-67
2023/11/15 12:39:48;;;;;;;;;;;;;;;3.94;74.77;98476.66;5060587;28;19924;-68
2023/11/15 12:42:25;;;;;;;;;;;;;;;3.87;75.22;98477.97;4999996;28;20411;-68
2023/11/15 12:44:50;;;;;;;;;;;;;;;3.81;75.49;98486.06;5018905;28;19924;-68
2023/11/15 12:47:16;;;;;;;;;;;;;;;3.79;75.61;98482.00;5023254;28;19942;-68
2023/11/15 12:49:42;;;;;;;;;;;;;;;3.76;75.82;98485.22;5042977;28;19926;-68
2023/11/15 12:52:08;;;;;;;;;;;;;;;3.75;76.17;98489.84;4960986;28;19926;-68
2023/11/15 12:54:35;;;;;;;;;;;;;;;3.65;76.44;98484.38;4985409;28;19924;-68
2023/11/15 12:57:03;;;;;;;;;;;;;;;3.51;76.80;98486.69;4985096;28;19928;-68